Time;durP1;ratioP1;P1;durP2;ratioP2;P2;SDS_P1;SDS_P2;PMS_P1;PMS_P2;Temp;Humidity;BMP_temperature;BMP_pressure;BME280_temperature;BME280_humidity;BME280_pressure;Samples;Min_cycle;Max_cycle;Signal;HPM_P1;HPM_P2
2023/09/16 00:22:48;;;;;;;14.52;11.38;;;;;;;14.38;100.00;101237.97;5114163;28;20092;-88
2023/09/16 00:25:16;;;;;;;14.90;11.13;;;;;;;14.37;100.00;101241.78;5095770;28;20045;-88
2023/09/16 00:27:42;;;;;;;15.73;11.50;;;;;;;14.33;100.00;101243.28;5079343;28;20024;-88
2023/09/16 00:33:51;;;;;;;14.00;10.93;;;;;;;14.26;100.00;101237.94;5112813;28;20039;-88
2023/09/16 01:04:25;;;;;;;17.90;12.63;;;;;;;14.00;100.00;101209.09;5115648;28;20058;-87
2023/09/16 01:17:26;;;;;;;16.83;12.20;;;;;;;13.87;100.00;101199.16;5115090;28;20071;-87
2023/09/16 02:12:28;;;;;;;19.77;14.55;;;;;;;13.64;100.00;101188.94;5115496;28;20121;-87
2023/09/16 02:18:17;;;;;;;17.50;13.73;;;;;;;13.62;100.00;101191.06;5115882;28;20517;-87
2023/09/16 02:30:57;;;;;;;17.42;13.13;;;;;;;13.52;100.00;101194.31;5113747;28;20035;-86
2023/09/16 02:33:27;;;;;;;15.80;13.03;;;;;;;13.46;100.00;101182.47;5097456;28;20039;-88
2023/09/16 02:35:52;;;;;;;17.85;12.95;;;;;;;13.41;100.00;101179.56;5081128;28;20477;-88
2023/09/16 02:38:24;;;;;;;16.80;11.80;;;;;;;13.38;100.00;101177.28;5097105;28;20023;-87
2023/09/16 05:24:46;;;;;;;18.48;12.23;;;;;;;12.74;100.00;101144.78;5116577;27;20075;-88
2023/09/16 05:27:11;;;;;;;19.47;13.23;;;;;;;12.74;100.00;101141.19;5117088;28;20050;-92
2023/09/16 05:29:37;;;;;;;18.35;13.50;;;;;;;12.79;100.00;101155.00;5098555;28;20019;-92
2023/09/16 05:32:02;;;;;;;19.07;13.37;;;;;;;12.76;100.00;101130.94;5083299;28;20523;-91
2023/09/16 05:34:28;;;;;;;22.13;13.53;;;;;;;12.81;100.00;101139.25;5099309;28;20035;-93
2023/09/16 05:36:53;;;;;;;20.77;13.90;;;;;;;12.85;100.00;101145.91;5090904;28;20383;-92
2023/09/16 05:39:19;;;;;;;20.53;14.47;;;;;;;12.89;100.00;101146.28;5099682;28;20368;-93
2023/09/16 05:41:44;;;;;;;16.93;13.13;;;;;;;12.97;100.00;101151.47;5084205;28;20455;-96
2023/09/16 05:44:19;;;;;;;16.93;13.57;;;;;;;12.94;100.00;101141.84;5084971;28;20023;-96
2023/09/16 05:46:47;;;;;;;20.40;14.00;;;;;;;12.97;100.00;101138.69;5122480;28;20043;-95
2023/09/16 05:49:13;;;;;;;18.17;13.32;;;;;;;13.05;100.00;101151.19;5099340;28;20520;-96
2023/09/16 05:51:38;;;;;;;21.27;15.17;;;;;;;13.05;100.00;101147.63;5118726;28;20032;-95
2023/09/16 05:54:07;;;;;;;23.90;15.02;;;;;;;13.10;100.00;101145.06;5100403;28;20081;-93
2023/09/16 05:56:32;;;;;;;19.47;14.60;;;;;;;13.16;100.00;101149.63;5098836;28;20036;-93
2023/09/16 05:59:00;;;;;;;20.05;14.30;;;;;;;13.24;100.00;101154.78;5098244;28;20088;-91
2023/09/16 06:01:28;;;;;;;18.13;13.67;;;;;;;13.29;100.00;101152.19;5099482;28;20028;-92
2023/09/16 06:03:53;;;;;;;21.48;14.25;;;;;;;13.37;100.00;101144.81;5098609;28;20110;-93
2023/09/16 06:06:19;;;;;;;19.30;13.03;;;;;;;13.45;100.00;101152.69;5098408;28;20118;-94
2023/09/16 06:08:47;;;;;;;22.02;14.35;;;;;;;13.52;100.00;101153.44;5116481;28;20475;-91
2023/09/16 06:11:15;;;;;;;19.02;14.10;;;;;;;13.57;100.00;101150.88;5099114;28;20024;-92
2023/09/16 06:13:40;;;;;;;16.52;13.65;;;;;;;13.66;100.00;101160.41;5098109;28;20042;-91
2023/09/16 06:16:07;;;;;;;17.73;13.83;;;;;;;13.74;100.00;101155.69;5098219;28;20031;-91
2023/09/16 06:18:35;;;;;;;19.65;14.25;;;;;;;13.78;100.00;101157.75;5116701;28;20083;-92
2023/09/16 06:21:01;;;;;;;18.20;14.20;;;;;;;13.87;100.00;101160.97;5098068;28;20039;-92
2023/09/16 06:23:27;;;;;;;20.70;14.07;;;;;;;13.90;100.00;101156.97;5116931;28;20035;-91
2023/09/16 06:25:58;;;;;;;20.23;14.68;;;;;;;13.95;100.00;101159.81;5116298;28;20051;-92
2023/09/16 06:28:33;;;;;;;16.10;13.75;;;;;;;14.03;100.00;101162.25;5116130;28;20031;-91
2023/09/16 06:31:03;;;;;;;18.07;13.87;;;;;;;14.13;100.00;101157.06;5098193;28;20023;-93
2023/09/16 06:33:31;;;;;;;18.77;13.85;;;;;;;14.23;100.00;101169.31;5117625;28;20100;-92
2023/09/16 06:35:59;;;;;;;18.20;13.85;;;;;;;14.28;100.00;101164.00;5098264;28;20449;-93
2023/09/16 06:38:27;;;;;;;16.08;13.75;;;;;;;14.37;100.00;101168.88;5098927;28;20036;-93
2023/09/16 06:40:55;;;;;;;19.90;13.63;;;;;;;14.41;100.00;101168.41;5100021;28;20031;-94
2023/09/16 06:43:21;;;;;;;19.63;14.50;;;;;;;14.50;100.00;101161.59;5101637;28;20070;-92
2023/09/16 06:45:49;;;;;;;20.48;14.65;;;;;;;14.62;100.00;101172.56;5102478;28;20068;-92
2023/09/16 06:48:17;;;;;;;20.02;14.20;;;;;;;14.67;100.00;101161.75;5103431;28;20023;-93
2023/09/16 06:50:50;;;;;;;19.17;14.60;;;;;;;14.78;100.00;101179.22;5095404;28;20495;-92
2023/09/16 06:53:18;;;;;;;21.65;15.07;;;;;;;14.91;100.00;101176.25;5110549;28;20544;-92
2023/09/16 06:55:46;;;;;;;20.33;15.47;;;;;;;15.00;100.00;101179.47;5102435;28;20028;-92
2023/09/16 06:58:12;;;;;;;22.25;15.07;;;;;;;15.08;100.00;101174.47;5100514;28;20459;-92
2023/09/16 07:00:37;;;;;;;21.92;15.65;;;;;;;15.23;100.00;101167.72;5100231;28;20020;-96
2023/09/16 07:03:06;;;;;;;20.67;15.50;;;;;;;15.27;100.00;101161.53;5098178;28;20027;-92
2023/09/16 07:05:34;;;;;;;20.55;16.83;;;;;;;15.40;100.00;101152.25;5096945;28;20028;-90
2023/09/16 07:08:02;;;;;;;24.38;16.48;;;;;;;15.55;100.00;101162.69;5096930;28;20027;-95
2023/09/16 07:10:29;;;;;;;22.03;16.13;;;;;;;15.67;100.00;101161.84;5117050;28;20055;-89
2023/09/16 07:12:57;;;;;;;20.70;16.42;;;;;;;15.77;100.00;101162.84;5079827;28;20056;-89
2023/09/16 07:15:27;;;;;;;20.33;16.15;;;;;;;15.89;100.00;101167.50;5096763;28;20118;-89
2023/09/16 07:17:53;;;;;;;22.05;16.70;;;;;;;15.97;100.00;101153.41;5114963;28;20024;-89
2023/09/16 07:20:22;;;;;;;20.80;17.03;;;;;;;16.10;100.00;101158.59;5096597;28;20035;-89
2023/09/16 07:22:55;;;;;;;18.35;16.00;;;;;;;16.24;100.00;101155.56;5097477;28;20035;-89
2023/09/16 07:25:21;;;;;;;21.00;16.50;;;;;;;16.42;100.00;101158.09;5097156;28;20044;-89
2023/09/16 07:27:47;;;;;;;22.53;16.40;;;;;;;16.51;100.00;101152.22;5096589;28;20084;-89
2023/09/16 07:30:14;;;;;;;22.25;15.07;;;;;;;16.63;100.00;101148.31;5096511;28;20118;-89
2023/09/16 07:32:41;;;;;;;19.45;15.35;;;;;;;16.78;100.00;101157.84;5080016;28;20042;-89
2023/09/16 07:35:07;;;;;;;20.97;15.03;;;;;;;16.89;100.00;101159.72;5096236;28;20031;-89
2023/09/16 07:37:35;;;;;;;19.73;15.13;;;;;;;17.03;100.00;101159.38;5095802;28;20027;-90
2023/09/16 07:40:08;;;;;;;19.25;15.18;;;;;;;17.10;100.00;101160.84;5097635;28;20036;-91
2023/09/16 07:42:40;;;;;;;16.40;13.82;;;;;;;17.26;100.00;101172.88;5096645;28;20027;-92
2023/09/16 07:45:06;;;;;;;18.02;14.48;;;;;;;17.36;100.00;101172.19;5081575;28;20043;-90
2023/09/16 07:47:34;;;;;;;19.60;14.27;;;;;;;17.43;100.00;101164.59;5097297;28;20050;-93
2023/09/16 07:50:03;;;;;;;17.80;13.88;;;;;;;17.54;100.00;101166.41;5096424;28;20053;-90
2023/09/16 07:52:29;;;;;;;17.40;13.23;;;;;;;17.64;100.00;101162.97;5096277;28;20034;-94
2023/09/16 07:54:59;;;;;;;16.98;13.20;;;;;;;17.74;100.00;101170.47;5115048;28;20528;-91
2023/09/16 07:57:24;;;;;;;16.90;13.82;;;;;;;17.86;100.00;101171.19;5114715;28;20035;-92
2023/09/16 07:59:50;;;;;;;19.33;13.93;;;;;;;17.94;100.00;101175.44;5115236;28;20027;-92
2023/09/16 08:02:16;;;;;;;17.60;13.13;;;;;;;18.03;100.00;101176.63;5096259;28;20035;-92
2023/09/16 08:04:42;;;;;;;15.18;12.70;;;;;;;18.06;100.00;101175.28;5096394;28;20020;-92
2023/09/16 08:07:07;;;;;;;17.83;12.80;;;;;;;18.10;100.00;101175.59;5114629;28;20478;-92
2023/09/16 08:09:33;;;;;;;16.30;11.95;;;;;;;18.17;100.00;101184.47;5096280;28;20028;-92
2023/09/16 08:12:00;;;;;;;16.37;12.67;;;;;;;18.22;100.00;101177.09;5096058;28;20024;-91
2023/09/16 08:14:26;;;;;;;15.63;11.98;;;;;;;18.30;100.00;101183.22;5114396;28;20106;-92
2023/09/16 08:16:54;;;;;;;15.55;11.18;;;;;;;18.43;100.00;101185.56;5096846;28;20116;-91
2023/09/16 08:19:24;;;;;;;14.67;10.37;;;;;;;18.48;100.00;101176.53;5114489;28;20133;-92
2023/09/16 08:21:58;;;;;;;14.13;10.30;;;;;;;18.56;100.00;101182.38;5096162;28;20055;-91
2023/09/16 08:24:24;;;;;;;15.40;11.25;;;;;;;18.62;100.00;101183.25;5096414;28;20027;-92
2023/09/16 08:26:51;;;;;;;14.60;10.90;;;;;;;18.75;100.00;101188.31;5096244;28;20051;-92
2023/09/16 08:29:17;;;;;;;11.83;10.60;;;;;;;18.85;100.00;101187.59;5097039;28;20356;-91
2023/09/16 08:31:42;;;;;;;12.68;10.55;;;;;;;18.98;100.00;101188.25;5099012;28;20070;-91
2023/09/16 08:34:08;;;;;;;13.83;10.57;;;;;;;19.08;100.00;101194.63;5117011;28;20031;-92
2023/09/16 08:36:37;;;;;;;11.13;9.98;;;;;;;19.19;99.00;101202.97;5099661;28;20058;-92
2023/09/16 08:39:02;;;;;;;12.70;9.77;;;;;;;19.27;98.94;101192.28;5082507;28;20023;-92
2023/09/16 08:41:34;;;;;;;16.77;10.70;;;;;;;19.43;98.58;101209.72;5097483;28;20431;-92
2023/09/16 08:44:05;;;;;;;13.60;10.90;;;;;;;19.44;96.98;101205.03;5097695;28;20024;-92
2023/09/16 08:46:33;;;;;;;19.27;10.63;;;;;;;19.55;97.14;101197.69;5115841;28;20058;-92
2023/09/16 08:49:00;;;;;;;13.13;10.93;;;;;;;19.62;97.42;101199.09;5117477;28;20023;-92
2023/09/16 08:51:32;;;;;;;15.30;10.82;;;;;;;19.69;97.30;101198.03;5099164;28;20042;-92
2023/09/16 08:53:59;;;;;;;13.48;11.30;;;;;;;19.73;97.66;101208.22;5119984;28;20028;-92
2023/09/16 08:56:27;;;;;;;14.57;10.90;;;;;;;19.78;97.47;101211.03;5126789;28;20047;-91
2023/09/16 08:58:54;;;;;;;14.40;10.83;;;;;;;19.82;96.31;101207.75;5102852;28;20036;-92
2023/09/16 09:01:19;;;;;;;14.48;10.93;;;;;;;19.87;95.97;101205.00;5096286;28;20039;-92
2023/09/16 09:03:48;;;;;;;14.98;11.10;;;;;;;19.87;95.19;101203.09;5096297;28;20023;-92
2023/09/16 09:06:14;;;;;;;18.48;10.45;;;;;;;20.02;96.65;101204.22;5098511;28;20023;-92
2023/09/16 09:08:40;;;;;;;16.00;10.97;;;;;;;20.10;95.33;101204.53;5098995;28;20027;-91
2023/09/16 09:11:14;;;;;;;15.18;10.45;;;;;;;20.19;93.90;101196.56;5099347;28;20513;-92
2023/09/16 09:13:42;;;;;;;14.20;10.95;;;;;;;20.31;94.94;101205.44;5099159;28;20032;-91
2023/09/16 09:16:08;;;;;;;12.43;10.53;;;;;;;20.54;94.86;101213.47;5082139;28;20118;-92
2023/09/16 09:18:36;;;;;;;14.45;10.85;;;;;;;20.65;94.49;101217.88;5098760;28;20085;-92
2023/09/16 09:21:05;;;;;;;12.38;9.95;;;;;;;20.82;91.48;101215.72;5099193;28;20391;-92
2023/09/16 09:23:31;;;;;;;15.05;10.60;;;;;;;20.91;91.08;101223.44;5082252;28;20416;-92
2023/09/16 09:25:57;;;;;;;13.25;10.48;;;;;;;21.09;90.46;101222.06;5116998;28;20144;-92
2023/09/16 09:28:22;;;;;;;11.60;10.10;;;;;;;21.14;88.45;101231.16;5099662;28;20153;-92
2023/09/16 09:30:49;;;;;;;12.18;10.07;;;;;;;21.29;87.95;101212.91;5098916;28;20063;-92
2023/09/16 09:33:19;;;;;;;12.25;9.43;;;;;;;21.60;88.12;101223.91;5099476;28;20043;-93
2023/09/16 09:35:47;;;;;;;12.13;9.00;;;;;;;21.78;84.44;101216.97;5099096;28;20089;-92
2023/09/16 09:38:14;;;;;;;11.98;9.32;;;;;;;22.03;84.08;101218.78;5099217;28;20028;-92
2023/09/16 09:40:56;;;;;;;12.80;8.73;;;;;;;22.31;81.59;101225.53;5098263;28;20084;-92
2023/09/16 09:43:22;;;;;;;13.93;9.30;;;;;;;22.52;80.47;101222.66;5098953;28;20032;-92
2023/09/16 09:45:47;;;;;;;11.23;8.10;;;;;;;22.71;78.82;101234.69;5098227;28;20486;-92
2023/09/16 09:48:15;;;;;;;9.60;7.50;;;;;;;22.85;78.11;101229.31;5098125;28;20030;-92
2023/09/16 09:50:44;;;;;;;8.68;7.50;;;;;;;22.95;75.18;101242.25;5081390;28;20054;-92
2023/09/16 09:53:17;;;;;;;10.55;8.02;;;;;;;23.16;75.72;101233.81;5098354;28;20141;-92
2023/09/16 09:55:44;;;;;;;8.85;7.40;;;;;;;23.36;75.24;101230.84;5116582;28;20031;-92
2023/09/16 09:58:13;;;;;;;12.50;8.23;;;;;;;23.58;74.79;101227.56;5098168;28;20020;-92
2023/09/16 10:00:47;;;;;;;9.93;7.03;;;;;;;23.81;74.16;101223.13;5116558;28;20020;-92
2023/09/16 10:03:16;;;;;;;10.85;8.00;;;;;;;24.00;72.14;101225.13;5117134;28;20045;-92
2023/09/16 10:05:46;;;;;;;10.75;8.45;;;;;;;24.22;73.01;101220.97;5099607;28;20024;-92
2023/09/16 10:08:13;;;;;;;12.15;8.57;;;;;;;24.35;71.25;101214.69;5117099;28;20038;-93
2023/09/16 10:10:40;;;;;;;12.32;8.80;;;;;;;24.39;71.46;101217.66;5116253;28;20034;-92
2023/09/16 10:13:06;;;;;;;10.63;8.40;;;;;;;24.58;71.73;101223.19;5098174;28;20360;-92
2023/09/16 10:15:42;;;;;;;11.27;8.43;;;;;;;24.68;69.52;101221.16;5098052;28;20073;-92
2023/09/16 10:18:08;;;;;;;12.65;8.48;;;;;;;24.60;69.34;101207.94;5115178;28;20103;-92
2023/09/16 10:20:37;;;;;;;9.80;8.55;;;;;;;24.75;69.50;101206.06;5116243;28;20087;-92
2023/09/16 10:23:06;;;;;;;11.47;9.57;;;;;;;24.92;67.92;101211.88;5097778;28;20489;-92
2023/09/16 10:25:35;;;;;;;11.85;9.32;;;;;;;25.08;67.34;101212.41;5097498;28;20071;-92
2023/09/16 10:28:05;;;;;;;10.70;8.05;;;;;;;25.19;66.86;101213.06;5116475;28;20034;-93
2023/09/16 10:30:32;;;;;;;11.45;9.10;;;;;;;25.38;66.45;101213.03;5116725;28;20023;-92
2023/09/16 10:33:11;;;;;;;9.00;7.95;;;;;;;25.72;65.83;101203.47;5115943;28;20031;-93
2023/09/16 10:35:39;;;;;;;9.20;7.40;;;;;;;25.93;63.16;101198.28;5098122;28;20038;-93
2023/09/16 10:38:07;;;;;;;10.05;7.38;;;;;;;26.15;63.65;101203.09;5097781;28;20028;-93
2023/09/16 10:40:43;;;;;;;9.10;7.18;;;;;;;26.21;62.75;101201.84;5097803;28;20077;-94
2023/09/16 10:43:14;;;;;;;11.10;7.50;;;;;;;26.22;62.21;101197.94;5098435;28;20047;-92
2023/09/16 10:45:47;;;;;;;9.82;8.05;;;;;;;26.60;61.95;101205.13;5097823;28;20035;-96
2023/09/16 10:48:13;;;;;;;9.50;7.80;;;;;;;26.83;62.16;101194.03;5098536;28;20451;-88
2023/09/16 10:50:39;;;;;;;12.38;8.38;;;;;;;27.03;60.38;101204.63;5097278;28;20034;-88
2023/09/16 10:53:10;;;;;;;10.40;8.35;;;;;;;27.04;60.80;101200.69;5097063;28;20019;-89
2023/09/16 10:56:07;;;;;;;12.50;8.50;;;;;;;27.21;61.29;101182.44;5115886;28;20534;-88
2023/09/16 10:58:55;;;;;;;13.05;8.48;;;;;;;27.55;61.21;101184.56;5097817;28;20058;-89
2023/09/16 11:01:38;;;;;;;12.02;8.02;;;;;;;27.99;60.05;101181.91;5096981;28;20027;-89
2023/09/16 11:04:31;;;;;;;10.73;8.00;;;;;;;28.43;59.15;101190.31;5096959;28;20035;-89
2023/09/16 11:06:58;;;;;;;9.98;8.00;;;;;;;28.90;54.29;101190.44;5093667;28;20109;-91
2023/09/16 11:09:24;;;;;;;9.33;7.70;;;;;;;30.38;51.66;101186.03;5097015;28;20054;-89
2023/09/16 11:11:53;;;;;;;10.80;7.53;;;;;;;32.78;45.65;101185.88;5096989;28;20384;-89
2023/09/16 11:14:22;;;;;;;10.40;8.27;;;;;;;35.14;40.86;101180.34;5114599;28;20031;-89
2023/09/16 11:16:49;;;;;;;10.25;8.50;;;;;;;37.06;35.66;101175.28;5115010;28;20031;-88
2023/09/16 11:19:19;;;;;;;10.00;7.70;;;;;;;38.93;32.78;101178.31;5096561;28;20020;-89
2023/09/16 11:21:48;;;;;;;12.13;7.50;;;;;;;40.23;30.05;101170.44;5096433;28;20057;-89
2023/09/16 11:24:17;;;;;;;9.65;6.95;;;;;;;41.23;27.26;101175.91;5095990;28;20034;-89
2023/09/16 11:30:23;;;;;;;9.75;6.72;;;;;;;42.89;25.14;101149.88;5114484;28;20043;-89
2023/09/16 11:42:43;;;;;;;9.82;7.88;;;;;;;44.48;22.08;101139.03;5051155;28;20043;-90
2023/09/16 11:48:47;;;;;;;9.20;8.30;;;;;;;45.45;23.38;101149.34;5051995;28;20063;-90
2023/09/16 11:51:14;;;;;;;9.60;8.63;;;;;;;45.66;20.10;101147.94;5051441;28;20480;-90
2023/09/16 11:53:40;;;;;;;11.35;9.43;;;;;;;45.41;20.42;101146.53;5087243;28;20070;-90
2023/09/16 11:56:58;;;;;;;9.07;8.17;;;;;;;45.64;21.72;101141.81;5096435;28;20042;-90
2023/09/16 12:02:47;;;;;;;10.30;9.15;;;;;;;46.95;19.12;101137.38;5114129;28;20073;-90
2023/09/16 12:08:42;;;;;;;10.80;9.80;;;;;;;48.06;18.83;101126.81;5114272;28;20168;-90
2023/09/16 12:14:32;;;;;;;10.63;9.73;;;;;;;48.41;17.73;101114.34;5114193;28;20085;-91
2023/09/16 12:17:06;;;;;;;10.60;9.70;;;;;;;48.36;17.33;101109.22;5096116;28;20039;-91
2023/09/16 12:19:33;;;;;;;11.48;10.40;;;;;;;48.07;17.15;101110.34;5114644;28;20039;-91
2023/09/16 12:21:58;;;;;;;10.75;9.75;;;;;;;47.30;17.60;101108.69;5095854;28;20035;-90
2023/09/16 12:24:24;;;;;;;11.30;10.40;;;;;;;46.63;18.54;101106.91;5095537;28;20060;-91
2023/09/16 12:26:50;;;;;;;10.90;9.90;;;;;;;46.39;18.60;101113.81;5095667;28;20428;-91
2023/09/16 12:29:19;;;;;;;11.17;10.07;;;;;;;46.25;19.14;101116.34;5113729;28;20305;-91
2023/09/16 12:31:45;;;;;;;12.23;11.05;;;;;;;46.36;18.81;101108.97;5096304;28;20038;-91
2023/09/16 12:34:18;;;;;;;11.43;10.40;;;;;;;47.26;18.82;101102.25;5114276;28;20023;-91
2023/09/16 12:36:49;;;;;;;10.73;9.82;;;;;;;47.45;18.13;101103.25;5096058;28;20059;-91
2023/09/16 12:39:15;;;;;;;10.55;9.65;;;;;;;47.48;18.55;101095.75;5095726;28;20020;-91
2023/09/16 12:41:46;;;;;;;10.77;9.63;;;;;;;47.88;17.61;101115.97;5100123;28;20023;-91
2023/09/16 12:44:12;;;;;;;10.25;9.23;;;;;;;47.58;18.11;101103.97;5117793;28;20064;-91
2023/09/16 12:46:41;;;;;;;10.27;9.48;;;;;;;47.47;18.00;101097.03;5118192;28;20471;-91
2023/09/16 12:49:09;;;;;;;10.63;9.70;;;;;;;47.33;17.81;101090.50;5117593;28;20045;-91
2023/09/16 12:51:35;;;;;;;11.07;9.93;;;;;;;47.47;17.78;101097.03;5082885;28;20035;-91
2023/09/16 12:54:04;;;;;;;12.37;10.37;;;;;;;47.49;18.10;101092.41;5099687;28;20038;-91
2023/09/16 12:56:31;;;;;;;11.05;10.15;;;;;;;47.03;18.21;101089.97;5118195;28;20106;-91
2023/09/16 12:58:59;;;;;;;11.63;10.63;;;;;;;46.69;18.73;101082.91;5123716;28;20032;-91
2023/09/16 13:01:43;;;;;;;11.07;10.05;;;;;;;46.96;20.07;101086.53;5099754;28;20161;-91
2023/09/16 13:04:11;;;;;;;10.43;9.52;;;;;;;46.15;18.64;101078.88;5117795;28;20039;-91
2023/09/16 13:06:39;;;;;;;10.57;9.57;;;;;;;45.75;19.22;101081.38;5099080;28;20040;-91
2023/09/16 13:09:11;;;;;;;10.40;9.50;;;;;;;45.60;19.39;101081.00;5099331;28;20391;-91
2023/09/16 13:11:38;;;;;;;10.10;9.20;;;;;;;46.20;19.39;101086.97;5117097;28;20502;-91
2023/09/16 13:14:04;;;;;;;11.00;10.02;;;;;;;46.09;18.91;101086.47;5098981;28;20122;-91
2023/09/16 13:16:38;;;;;;;10.83;9.73;;;;;;;45.66;19.60;101077.09;5098814;28;20169;-91
2023/09/16 13:19:20;;;;;;;12.82;11.63;;;;;;;46.44;19.61;101080.88;5099117;28;20031;-91
2023/09/16 13:21:49;;;;;;;10.13;9.10;;;;;;;46.67;18.59;101070.28;5099773;28;20168;-91
2023/09/16 13:24:15;;;;;;;10.68;9.68;;;;;;;46.75;18.41;101066.72;5117060;28;20046;-91
2023/09/16 13:26:55;;;;;;;10.85;9.90;;;;;;;47.22;18.96;101072.91;5098442;28;20055;-91
2023/09/16 13:29:23;;;;;;;12.03;10.93;;;;;;;48.16;17.11;101057.84;5081927;28;20028;-91
2023/09/16 13:32:01;;;;;;;13.40;9.65;;;;;;;49.06;17.59;101063.47;5117008;28;20028;-91
2023/09/16 13:34:46;;;;;;;12.10;10.90;;;;;;;49.15;17.33;101062.66;5081988;28;20392;-91
2023/09/16 13:37:17;;;;;;;11.20;10.30;;;;;;;49.52;16.67;101065.50;5117018;28;20046;-91
2023/09/16 13:39:47;;;;;;;10.98;9.88;;;;;;;49.61;16.20;101064.72;5099208;28;20536;-91
2023/09/16 13:42:17;;;;;;;11.17;10.27;;;;;;;49.70;16.08;101064.72;5116721;28;20027;-91
2023/09/16 13:44:51;;;;;;;11.50;10.38;;;;;;;49.94;15.93;101061.91;5116939;28;20035;-91
2023/09/16 13:47:16;;;;;;;10.57;9.68;;;;;;;49.96;15.97;101065.09;5098819;28;20039;-91
2023/09/16 13:49:42;;;;;;;10.73;9.93;;;;;;;50.88;15.07;101062.97;5097898;28;20088;-91
2023/09/16 13:52:15;;;;;;;11.45;10.25;;;;;;;49.78;15.70;101056.50;5097851;28;20020;-91
2023/09/16 13:54:40;;;;;;;14.00;9.60;;;;;;;48.36;16.59;101051.69;5098564;28;20028;-91
2023/09/16 13:57:06;;;;;;;11.23;10.23;;;;;;;48.58;16.96;101052.38;5116510;28;20459;-91
2023/09/16 13:59:31;;;;;;;9.77;8.97;;;;;;;47.74;17.29;101054.13;5116497;28;20085;-91
2023/09/16 14:01:57;;;;;;;10.17;9.33;;;;;;;47.19;17.90;101051.66;5098210;28;20034;-91
2023/09/16 14:04:22;;;;;;;10.55;9.55;;;;;;;46.35;18.20;101052.09;5097748;28;20118;-91
2023/09/16 14:06:50;;;;;;;11.03;10.13;;;;;;;45.08;19.71;101051.31;5098047;28;20026;-91
2023/09/16 14:09:18;;;;;;;11.13;10.10;;;;;;;44.39;19.96;101055.91;5098620;28;20028;-91
2023/09/16 14:11:43;;;;;;;10.75;9.80;;;;;;;43.35;21.26;101055.28;5097902;28;20032;-91
2023/09/16 14:14:13;;;;;;;12.43;10.13;;;;;;;42.40;22.64;101050.44;5081110;28;20092;-91
2023/09/16 14:16:39;;;;;;;11.23;10.13;;;;;;;41.61;23.84;101051.50;5081856;28;20032;-91
2023/09/16 14:19:04;;;;;;;11.37;10.10;;;;;;;41.07;24.00;101052.06;5097886;28;20099;-91
2023/09/16 14:21:33;;;;;;;11.00;10.00;;;;;;;40.48;24.85;101047.28;5097874;28;20122;-91
2023/09/16 14:23:58;;;;;;;10.68;9.65;;;;;;;39.84;25.33;101049.28;5098902;28;20027;-90
2023/09/16 14:26:24;;;;;;;11.00;9.90;;;;;;;39.61;26.13;101046.94;5115825;28;20139;-90
2023/09/16 14:28:50;;;;;;;11.48;9.23;;;;;;;39.25;26.90;101049.88;5080320;28;20099;-89
2023/09/16 14:31:17;;;;;;;9.68;8.75;;;;;;;38.93;26.54;101050.69;5115937;28;20042;-89
2023/09/16 14:33:42;;;;;;;10.05;8.85;;;;;;;38.50;26.63;101039.34;5081309;28;20032;-89
2023/09/16 14:36:08;;;;;;;10.83;8.50;;;;;;;38.15;27.45;101055.88;5115512;28;20352;-91
2023/09/16 14:38:33;;;;;;;10.97;8.10;;;;;;;37.87;27.90;101048.91;5083342;28;20027;-89
2023/09/16 14:41:05;;;;;;;9.07;8.18;;;;;;;37.63;28.45;101043.94;5116827;28;20032;-91
2023/09/16 14:43:31;;;;;;;9.68;8.55;;;;;;;37.32;29.42;101049.03;5117314;28;20106;-91
2023/09/16 14:45:59;;;;;;;8.93;7.90;;;;;;;36.82;30.32;101047.47;5101797;28;20116;-91
2023/09/16 14:48:25;;;;;;;11.15;8.75;;;;;;;36.91;29.90;101044.28;5097267;28;20020;-91
2023/09/16 14:50:54;;;;;;;10.37;8.93;;;;;;;37.02;30.06;101058.50;5098288;28;20024;-91
2023/09/16 14:53:20;;;;;;;10.50;8.60;;;;;;;36.97;29.78;101050.38;5098497;28;20379;-90
2023/09/16 14:55:51;;;;;;;11.68;8.65;;;;;;;37.09;30.07;101057.72;5120004;28;20032;-90
2023/09/16 14:58:19;;;;;;;15.03;8.67;;;;;;;37.13;29.74;101050.09;5122749;28;20036;-91
2023/09/16 15:00:46;;;;;;;9.00;8.23;;;;;;;37.19;29.41;101048.50;5120151;28;20028;-91
2023/09/16 15:03:11;;;;;;;10.90;8.77;;;;;;;37.54;28.92;101053.56;5096776;28;20020;-91
2023/09/16 15:05:44;;;;;;;10.67;8.70;;;;;;;37.70;29.28;101058.13;5097314;28;20478;-90
2023/09/16 15:08:11;;;;;;;9.85;8.35;;;;;;;37.65;29.28;101053.66;5081831;28;20349;-91
2023/09/16 15:10:36;;;;;;;9.63;7.93;;;;;;;37.38;29.68;101055.91;5098009;28;20121;-91
2023/09/16 15:13:02;;;;;;;10.53;9.43;;;;;;;37.10;30.27;101062.19;5115522;28;20452;-91
2023/09/16 15:15:27;;;;;;;12.25;8.25;;;;;;;36.96;30.65;101048.75;5083862;28;20088;-91
2023/09/16 15:17:53;;;;;;;10.30;8.50;;;;;;;36.78;30.59;101046.59;5096827;28;20024;-91
2023/09/16 15:20:18;;;;;;;8.43;7.60;;;;;;;36.31;31.01;101045.34;5096626;28;20071;-91
2023/09/16 15:22:44;;;;;;;9.07;8.00;;;;;;;36.22;31.26;101051.28;5097139;28;20111;-91
2023/09/16 15:25:09;;;;;;;8.90;7.30;;;;;;;35.73;32.04;101050.28;5096429;28;20663;-90
2023/09/16 15:27:35;;;;;;;9.23;8.40;;;;;;;35.48;32.17;101047.94;5114774;28;20027;-90
2023/09/16 15:30:00;;;;;;;10.93;8.47;;;;;;;34.97;33.85;101049.16;5096074;28;20035;-90
2023/09/16 15:32:26;;;;;;;13.50;9.23;;;;;;;34.63;34.55;101053.81;5079195;28;20034;-90
2023/09/16 15:34:53;;;;;;;10.50;9.30;;;;;;;34.32;34.86;101066.94;5096782;28;20022;-90
2023/09/16 15:37:19;;;;;;;12.98;9.13;;;;;;;33.84;35.48;101053.13;5096142;28;20437;-90
2023/09/16 15:39:44;;;;;;;9.80;8.80;;;;;;;33.52;36.83;101052.41;5079643;28;20023;-90
2023/09/16 15:42:10;;;;;;;10.85;9.75;;;;;;;32.98;37.36;101048.31;5114550;28;20031;-90
2023/09/16 15:44:38;;;;;;;12.80;10.07;;;;;;;32.54;38.21;101054.81;5114030;28;20398;-90
2023/09/16 15:47:03;;;;;;;13.10;9.73;;;;;;;31.79;40.44;101059.13;5114723;28;20031;-90
2023/09/16 15:49:32;;;;;;;15.37;10.20;;;;;;;31.39;41.51;101049.50;5096208;28;20024;-89
2023/09/16 15:51:58;;;;;;;12.32;10.05;;;;;;;30.99;42.33;101052.16;5114700;28;20035;-90
2023/09/16 15:54:24;;;;;;;12.63;10.80;;;;;;;30.82;43.02;101054.03;5114705;28;20026;-91
2023/09/16 15:56:50;;;;;;;12.70;9.93;;;;;;;30.38;44.47;101054.50;5114320;28;20023;-89
2023/09/16 15:59:16;;;;;;;11.70;10.10;;;;;;;30.18;45.01;101063.78;5096025;28;20031;-90
2023/09/16 16:01:43;;;;;;;13.67;10.07;;;;;;;29.91;45.71;101055.63;5096005;28;20490;-89
2023/09/16 16:04:09;;;;;;;14.07;9.95;;;;;;;29.51;46.59;101053.28;5115130;28;20036;-90
2023/09/16 16:06:34;;;;;;;10.90;9.05;;;;;;;29.22;47.81;101054.13;5095735;28;20057;-89
2023/09/16 16:09:00;;;;;;;14.53;9.23;;;;;;;28.94;49.06;101054.56;5113787;28;20023;-89
2023/09/16 16:11:25;;;;;;;11.23;8.60;;;;;;;28.74;50.06;101058.13;5114518;28;20035;-89
2023/09/16 16:13:51;;;;;;;10.23;9.13;;;;;;;28.52;50.91;101065.53;5079351;28;20028;-90
2023/09/16 16:16:16;;;;;;;14.05;10.00;;;;;;;28.25;51.13;101058.38;5095413;28;20038;-90
2023/09/16 16:18:44;;;;;;;11.40;10.00;;;;;;;28.08;52.00;101062.00;5078942;28;20028;-89
2023/09/16 16:21:10;;;;;;;14.27;10.23;;;;;;;27.93;52.43;101058.56;5079784;28;20114;-89
2023/09/16 16:23:38;;;;;;;13.73;10.20;;;;;;;27.79;53.66;101063.47;5114544;28;20112;-89
2023/09/16 16:26:03;;;;;;;16.75;11.23;;;;;;;27.55;53.87;101066.69;5095748;28;20130;-89
2023/09/16 16:28:32;;;;;;;14.00;11.13;;;;;;;27.37;55.16;101069.47;5079210;28;20024;-89
2023/09/16 16:30:57;;;;;;;18.02;11.07;;;;;;;27.13;55.22;101058.72;5079880;28;20040;-90
2023/09/16 16:33:23;;;;;;;15.88;11.25;;;;;;;26.89;57.03;101070.28;5095891;28;20030;-90
2023/09/16 16:35:51;;;;;;;12.83;11.40;;;;;;;26.79;56.66;101077.75;5095961;28;20031;-89
2023/09/16 16:38:17;;;;;;;15.15;12.25;;;;;;;26.56;58.10;101071.38;5095532;28;20032;-90